Time;durP1;ratioP1;P1;durP2;ratioP2;P2;SDS_P1;SDS_P2;PMS_P1;PMS_P2;Temp;Humidity;BMP_temperature;BMP_pressure;BME280_temperature;BME280_humidity;BME280_pressure;Samples;Min_cycle;Max_cycle;Signal;HPM_P1;HPM_P2
2021/12/21 00:00:14;;;;;;;132.27;39.78;;;-0.70;93.80;;;;;;5014677;28;20555;-71
2021/12/21 00:02:45;;;;;;;30.33;27.55;;;-0.70;95.80;;;;;;5015228;28;20218;-72
2021/12/21 00:05:17;;;;;;;29.23;26.70;;;-0.70;96.90;;;;;;5014748;28;20220;-72
2021/12/21 00:07:45;;;;;;;30.23;27.38;;;-0.70;95.30;;;;;;5014825;28;20206;-71
2021/12/21 00:10:12;;;;;;;28.50;26.10;;;-0.70;94.60;;;;;;5014600;28;20289;-71
2021/12/21 00:12:49;;;;;;;29.92;27.10;;;-0.70;94.30;;;;;;5014721;28;20221;-71
2021/12/21 00:15:22;;;;;;;29.52;27.00;;;-0.70;93.70;;;;;;5014865;28;20221;-72
2021/12/21 00:17:56;;;;;;;30.85;27.77;;;-0.90;93.30;;;;;;5014384;28;20290;-72
2021/12/21 00:20:44;;;;;;;29.48;26.83;;;-1.00;93.70;;;;;;5014516;28;20729;-71
2021/12/21 00:23:30;;;;;;;30.08;26.70;;;-0.90;93.70;;;;;;5014472;28;20221;-72
2021/12/21 00:25:57;;;;;;;28.83;26.30;;;-1.00;93.50;;;;;;5014621;28;20202;-71
2021/12/21 00:28:24;;;;;;;29.73;27.00;;;-1.00;93.40;;;;;;5014370;28;20212;-72
2021/12/21 00:30:51;;;;;;;29.77;27.45;;;-0.90;93.30;;;;;;5014367;28;20197;-72
2021/12/21 00:33:20;;;;;;;28.98;26.48;;;-0.90;93.10;;;;;;5014241;28;20202;-71
2021/12/21 00:35:46;;;;;;;29.10;26.52;;;-0.90;92.60;;;;;;5014187;28;20198;-71
2021/12/21 00:38:14;;;;;;;29.55;26.63;;;-0.90;92.70;;;;;;5014313;28;20201;-71
2021/12/21 00:40:41;;;;;;;28.95;26.35;;;-0.90;92.70;;;;;;5013533;28;20293;-71
2021/12/21 00:43:08;;;;;;;29.75;27.10;;;-0.90;92.70;;;;;;5013972;28;20236;-71
2021/12/21 00:45:34;;;;;;;29.17;26.50;;;-0.90;92.30;;;;;;5014196;28;20200;-71
2021/12/21 00:48:02;;;;;;;28.80;26.02;;;-0.90;92.50;;;;;;5014313;28;20197;-71
2021/12/21 00:50:30;;;;;;;29.13;26.83;;;-1.00;92.40;;;;;;5014150;28;20229;-71
2021/12/21 00:52:57;;;;;;;31.42;25.23;;;-1.00;92.50;;;;;;5014309;28;20194;-71
2021/12/21 00:55:24;;;;;;;28.55;26.00;;;-1.10;92.70;;;;;;5013879;28;20319;-71
2021/12/21 00:57:51;;;;;;;29.35;26.63;;;-1.10;92.60;;;;;;5013929;28;20230;-71
2021/12/21 01:00:21;;;;;;;26.92;24.83;;;-1.00;92.30;;;;;;5013889;28;20201;-71
2021/12/21 01:02:48;;;;;;;29.23;26.33;;;-1.00;92.20;;;;;;5013980;28;20221;-71
2021/12/21 01:05:22;;;;;;;28.08;25.88;;;-1.10;92.10;;;;;;5013698;28;20217;-71
2021/12/21 01:07:53;;;;;;;163.40;38.10;;;-1.10;92.50;;;;;;5013637;28;20529;-71
2021/12/21 01:13:15;;;;;;;29.20;26.52;;;-1.20;93.50;;;;;;5013826;28;20560;-71
2021/12/21 01:16:04;;;;;;;29.52;26.92;;;-1.20;93.50;;;;;;5013772;28;20618;-71
2021/12/21 01:18:37;;;;;;;28.20;25.98;;;-1.20;93.70;;;;;;5013771;28;20301;-71
2021/12/21 01:21:10;;;;;;;27.95;25.60;;;-1.20;93.80;;;;;;5013411;28;20678;-71
2021/12/21 01:23:57;;;;;;;27.52;25.33;;;-1.20;93.20;;;;;;5013326;28;20234;-71
2021/12/21 01:26:31;;;;;;;219.38;45.22;;;-1.20;93.20;;;;;;5013419;28;20209;-72
2021/12/21 01:29:06;;;;;;;28.02;25.67;;;-1.30;94.00;;;;;;5013378;28;20293;-71
2021/12/21 01:31:42;;;;;;;28.23;25.48;;;-1.20;94.00;;;;;;5013358;28;20256;-71
2021/12/21 01:34:22;;;;;;;28.33;25.67;;;-1.30;93.50;;;;;;5013150;28;20260;-71
2021/12/21 01:36:55;;;;;;;27.92;25.48;;;-1.30;93.40;;;;;;5013250;28;20263;-71
2021/12/21 01:42:14;;;;;;;29.02;26.58;;;-1.20;92.60;;;;;;5011166;28;20213;-71
2021/12/21 01:49:34;;;;;;;27.65;25.45;;;-1.10;92.40;;;;;;5013270;28;20303;-71
2021/12/21 01:50:15;;;;;;;28.45;25.75;;;-1.20;91.40;;;;;;5030737;28;20200;-71
2021/12/21 01:52:42;;;;;;;27.90;25.65;;;-1.40;91.50;;;;;;5031456;28;20299;-71
2021/12/21 01:55:10;;;;;;;27.67;24.95;;;-1.50;92.00;;;;;;5032761;28;20234;-71
2021/12/21 01:57:37;;;;;;;27.13;25.02;;;-1.50;92.30;;;;;;5032713;28;20288;-71
2021/12/21 02:00:06;;;;;;;27.17;25.27;;;-1.60;92.50;;;;;;5032428;28;20717;-71
2021/12/21 02:02:34;;;;;;;28.45;26.05;;;-1.50;92.70;;;;;;5032523;28;20227;-71
2021/12/21 02:05:00;;;;;;;28.15;25.70;;;-1.50;92.70;;;;;;5032548;28;20217;-71
2021/12/21 02:07:27;;;;;;;27.15;24.83;;;-1.50;92.50;;;;;;5032522;28;20201;-71
2021/12/21 02:09:54;;;;;;;27.23;25.02;;;-1.50;92.40;;;;;;5032474;28;20280;-71
2021/12/21 02:12:23;;;;;;;28.50;26.00;;;-1.40;92.20;;;;;;5032465;28;20212;-71
2021/12/21 02:14:56;;;;;;;28.63;26.33;;;-1.40;91.90;;;;;;5032604;28;20263;-72
2021/12/21 02:17:50;;;;;;;28.15;26.00;;;-1.50;91.70;;;;;;5032396;28;20200;-72
2021/12/21 02:20:25;;;;;;;30.27;28.08;;;-1.40;91.80;;;;;;5032340;28;20658;-72
2021/12/21 02:22:59;;;;;;;28.23;25.80;;;-1.50;92.10;;;;;;5032530;28;20247;-71
2021/12/21 02:28:33;;;;;;;29.10;26.38;;;-1.50;92.10;;;;;;5015042;28;20704;-71
2021/12/21 02:31:00;;;;;;;28.77;26.48;;;-1.60;91.90;;;;;;5032469;28;20204;-71
2021/12/21 02:33:28;;;;;;;28.75;26.30;;;-1.60;91.90;;;;;;5032274;28;20276;-71
2021/12/21 02:35:58;;;;;;;27.17;25.17;;;-1.50;91.80;;;;;;5032303;28;20287;-71
2021/12/21 02:38:25;;;;;;;27.35;25.27;;;-1.50;91.50;;;;;;5032373;28;20199;-71
2021/12/21 02:40:52;;;;;;;202.85;47.80;;;-1.60;91.70;;;;;;5032115;28;20201;-71
2021/12/21 02:43:19;;;;;;;105.50;34.25;;;-1.70;92.10;;;;;;5032142;28;20231;-71
2021/12/21 02:45:47;;;;;;;27.98;25.77;;;-1.70;92.60;;;;;;5032374;28;20200;-71
2021/12/21 02:48:14;;;;;;;27.95;25.30;;;-1.80;93.10;;;;;;5032158;28;20208;-71
2021/12/21 02:50:42;;;;;;;27.48;25.45;;;-1.70;93.00;;;;;;5032076;28;20201;-71
2021/12/21 02:53:10;;;;;;;27.85;25.35;;;-1.60;92.40;;;;;;5031997;28;20201;-71
2021/12/21 02:55:38;;;;;;;27.08;25.02;;;-1.70;92.40;;;;;;5032246;28;20196;-71
2021/12/21 02:58:05;;;;;;;27.20;24.95;;;-1.70;92.50;;;;;;5032257;28;20205;-71
2021/12/21 03:00:32;;;;;;;26.27;24.27;;;-1.80;92.20;;;;;;5031897;28;20266;-71
2021/12/21 03:03:06;;;;;;;26.88;24.77;;;-1.80;92.30;;;;;;5032029;28;20231;-71
2021/12/21 03:05:34;;;;;;;305.00;53.53;;;-1.80;92.10;;;;;;5035731;28;20209;-71
2021/12/21 03:08:12;;;;;;;26.00;23.98;;;-1.80;92.10;;;;;;5035797;28;20295;-71
2021/12/21 03:10:57;;;;;;;25.83;24.00;;;-1.80;92.40;;;;;;5035866;28;20209;-71
2021/12/21 03:16:09;;;;;;;26.60;24.60;;;-1.80;91.60;;;;;;5035708;28;20670;-71
2021/12/21 03:18:36;;;;;;;28.92;26.50;;;-1.80;91.50;;;;;;5035770;28;20225;-72
2021/12/21 03:21:03;;;;;;;28.30;25.92;;;-1.90;91.80;;;;;;5035369;28;20235;-71
2021/12/21 03:23:30;;;;;;;29.17;26.67;;;-1.90;92.90;;;;;;5035292;28;20306;-71
2021/12/21 03:25:58;;;;;;;27.73;25.67;;;-1.90;92.70;;;;;;5035309;28;20301;-71
2021/12/21 03:28:25;;;;;;;27.95;25.27;;;-1.80;92.30;;;;;;5035437;28;20378;-71
2021/12/21 03:30:53;;;;;;;26.23;24.33;;;-1.70;91.50;;;;;;5035429;28;20215;-71
2021/12/21 03:33:20;;;;;;;25.92;23.88;;;-1.70;91.30;;;;;;5035239;28;20199;-71
2021/12/21 03:35:47;;;;;;;27.55;25.15;;;-1.70;91.00;;;;;;5035032;28;20207;-71
2021/12/21 03:38:15;;;;;;;27.33;24.98;;;-1.80;90.80;;;;;;5035283;28;20660;-71
2021/12/21 03:40:42;;;;;;;29.30;26.73;;;-1.90;90.80;;;;;;5034813;28;20223;-71
2021/12/21 03:43:11;;;;;;;29.95;27.02;;;-2.00;91.30;;;;;;5034945;28;20234;-71
2021/12/21 03:45:47;;;;;;;28.00;25.42;;;-2.00;91.80;;;;;;5035218;28;20215;-71
2021/12/21 03:48:15;;;;;;;27.92;25.55;;;-2.00;92.00;;;;;;5034976;28;20216;-71
2021/12/21 03:50:42;;;;;;;28.38;26.10;;;-2.00;92.00;;;;;;5034943;28;20652;-71
2021/12/21 03:53:09;;;;;;;27.95;25.88;;;-2.00;91.70;;;;;;5034817;28;20278;-71
2021/12/21 03:55:36;;;;;;;27.50;25.38;;;-1.90;91.60;;;;;;5034977;28;20210;-70
2021/12/21 03:58:03;;;;;;;27.95;25.70;;;-1.90;91.10;;;;;;5034906;28;20295;-71
2021/12/21 04:00:31;;;;;;;29.10;27.00;;;-1.80;90.70;;;;;;5034682;28;20206;-71
2021/12/21 04:02:58;;;;;;;28.85;26.27;;;-1.80;90.30;;;;;;5034736;28;20683;-72
2021/12/21 04:05:25;;;;;;;28.17;25.85;;;-1.90;90.40;;;;;;5034844;28;20220;-71
2021/12/21 04:07:52;;;;;;;26.83;24.63;;;-1.80;90.30;;;;;;5034669;28;20202;-71
2021/12/21 04:10:19;;;;;;;25.85;23.95;;;-1.90;90.10;;;;;;5034512;28;20201;-71
2021/12/21 04:12:45;;;;;;;26.95;25.00;;;-2.00;90.20;;;;;;5034642;28;20208;-71
2021/12/21 04:15:16;;;;;;;28.30;26.20;;;-2.10;90.50;;;;;;5033789;28;20230;-71
2021/12/21 04:17:44;;;;;;;28.15;25.83;;;-2.10;90.90;;;;;;5034495;28;20208;-71
2021/12/21 04:20:12;;;;;;;26.73;24.83;;;-2.10;91.00;;;;;;5034331;28;20233;-71
2021/12/21 04:22:38;;;;;;;27.25;25.00;;;-2.10;91.00;;;;;;5034470;28;20288;-71
2021/12/21 04:25:06;;;;;;;29.17;26.83;;;-2.10;90.70;;;;;;5034312;28;20221;-71
2021/12/21 04:27:33;;;;;;;29.55;27.25;;;-2.10;90.40;;;;;;5034380;28;20237;-71
2021/12/21 04:30:00;;;;;;;27.67;25.65;;;-2.10;90.30;;;;;;5034362;28;20202;-71
2021/12/21 04:32:27;;;;;;;28.00;25.90;;;-2.10;90.30;;;;;;5034171;28;20198;-71
2021/12/21 04:34:55;;;;;;;27.10;24.73;;;-2.20;90.40;;;;;;5033677;28;20228;-71
2021/12/21 04:37:24;;;;;;;26.80;24.73;;;-2.20;90.80;;;;;;5034059;28;20286;-71
2021/12/21 04:39:57;;;;;;;28.50;26.20;;;-2.20;91.40;;;;;;5033877;28;20205;-71
2021/12/21 04:42:24;;;;;;;28.70;26.50;;;-2.20;91.50;;;;;;5034143;28;20204;-71
2021/12/21 04:44:51;;;;;;;28.15;25.67;;;-2.30;91.50;;;;;;5034057;28;20226;-71
2021/12/21 04:47:18;;;;;;;27.25;25.05;;;-2.20;91.70;;;;;;5033813;28;20211;-71
2021/12/21 04:49:45;;;;;;;28.48;26.15;;;-2.30;91.30;;;;;;5033652;28;20208;-71
2021/12/21 04:52:13;;;;;;;27.80;25.27;;;-2.30;91.00;;;;;;5033940;28;20282;-71
2021/12/21 04:54:40;;;;;;;28.13;26.02;;;-2.20;90.90;;;;;;5033802;28;20303;-71
2021/12/21 04:57:07;;;;;;;28.48;26.17;;;-2.30;90.70;;;;;;5033702;28;20227;-71
2021/12/21 04:59:34;;;;;;;27.27;25.45;;;-2.30;90.90;;;;;;5033564;28;20202;-71
2021/12/21 05:02:01;;;;;;;27.88;25.60;;;-2.30;90.70;;;;;;5033760;28;20205;-71
2021/12/21 05:04:28;;;;;;;27.25;25.15;;;-2.20;90.60;;;;;;5033408;28;20315;-71
2021/12/21 05:06:55;;;;;;;27.92;25.45;;;-2.30;90.40;;;;;;5033692;28;20195;-72
2021/12/21 05:09:26;;;;;;;27.45;24.63;;;-2.30;90.50;;;;;;5033467;28;20686;-71
2021/12/21 05:12:00;;;;;;;27.95;25.35;;;-2.30;90.70;;;;;;5033526;28;20555;-71
2021/12/21 05:14:27;;;;;;;27.90;25.45;;;-2.40;90.90;;;;;;5033324;28;20699;-71
2021/12/21 05:16:54;;;;;;;26.73;24.80;;;-2.40;90.80;;;;;;5033381;28;20381;-71
2021/12/21 05:19:21;;;;;;;28.50;26.05;;;-2.40;90.90;;;;;;5033306;28;20200;-72
2021/12/21 05:21:47;;;;;;;27.65;25.20;;;-2.40;90.90;;;;;;5033210;28;20202;-71
2021/12/21 05:24:14;;;;;;;26.83;24.80;;;-2.40;91.00;;;;;;5033007;28;20713;-71
2021/12/21 05:26:43;;;;;;;26.45;24.40;;;-2.30;90.40;;;;;;5033306;28;20694;-71
2021/12/21 05:29:10;;;;;;;27.48;25.15;;;-2.20;89.80;;;;;;5032916;28;20669;-71
2021/12/21 05:31:37;;;;;;;27.02;25.13;;;-2.30;89.80;;;;;;5033321;28;20206;-71
2021/12/21 05:34:04;;;;;;;28.63;26.42;;;-2.30;89.80;;;;;;5032911;28;20220;-71
2021/12/21 05:36:31;;;;;;;28.13;26.10;;;-2.40;89.90;;;;;;5033077;28;20291;-71
2021/12/21 05:39:02;;;;;;;27.20;24.90;;;-2.40;90.20;;;;;;5032864;28;20205;-72
2021/12/21 05:41:41;;;;;;;27.83;25.73;;;-2.40;90.10;;;;;;5033049;28;20201;-71
2021/12/21 05:44:09;;;;;;;27.45;25.25;;;-2.50;90.30;;;;;;5032817;28;20222;-72
2021/12/21 05:46:36;;;;;;;29.52;27.33;;;-2.50;90.50;;;;;;5032932;28;20236;-71
2021/12/21 05:49:03;;;;;;;27.42;25.48;;;-2.40;90.80;;;;;;5032851;28;20196;-71
2021/12/21 05:51:30;;;;;;;26.90;24.70;;;-2.40;90.50;;;;;;5033148;28;20290;-71
2021/12/21 05:53:57;;;;;;;26.63;24.15;;;-2.50;90.50;;;;;;5032670;28;20303;-71
2021/12/21 05:56:24;;;;;;;26.60;24.17;;;-2.50;90.50;;;;;;5032828;28;20206;-71
2021/12/21 05:58:51;;;;;;;27.33;24.67;;;-2.50;90.50;;;;;;5032766;28;20201;-71
2021/12/21 06:01:19;;;;;;;27.50;25.38;;;-2.50;90.30;;;;;;5032617;28;20196;-71
2021/12/21 06:03:46;;;;;;;26.08;23.85;;;-2.50;90.40;;;;;;5032476;28;20227;-71
2021/12/21 06:06:15;;;;;;;26.02;24.15;;;-2.60;94.40;;;;;;5032540;28;20200;-71
2021/12/21 06:08:43;;;;;;;25.45;23.48;;;-2.60;93.30;;;;;;5032574;28;20207;-71
2021/12/21 06:11:10;;;;;;;27.80;25.42;;;-2.60;92.40;;;;;;5032417;28;20229;-71
2021/12/21 06:14:00;;;;;;;26.80;24.88;;;-2.60;91.70;;;;;;5032451;28;20302;-71
2021/12/21 06:27:28;;;;;;;28.33;25.95;;;-2.80;91.50;;;;;;5032723;28;20195;-70
2021/12/21 06:29:55;;;;;;;27.38;25.15;;;-2.80;91.60;;;;;;5032354;28;20287;-71
2021/12/21 06:32:24;;;;;;;29.35;26.90;;;-2.70;91.60;;;;;;5032482;28;20217;-71
2021/12/21 06:34:51;;;;;;;28.02;25.88;;;-2.70;91.30;;;;;;5032289;28;20317;-72
2021/12/21 06:37:18;;;;;;;28.45;25.90;;;-2.60;90.90;;;;;;5032376;28;20202;-72
2021/12/21 06:39:46;;;;;;;26.42;24.33;;;-2.60;90.30;;;;;;5034583;28;20286;-72
2021/12/21 06:42:14;;;;;;;28.60;26.25;;;-2.60;90.30;;;;;;5036125;28;20243;-72
2021/12/21 06:44:43;;;;;;;27.52;25.38;;;-2.60;90.00;;;;;;5036203;28;20602;-72
2021/12/21 06:52:40;;;;;;;28.20;25.90;;;-2.90;90.70;;;;;;5035943;28;20244;-72
2021/12/21 06:55:08;;;;;;;28.65;26.30;;;-2.80;90.80;;;;;;5036069;28;20222;-72
2021/12/21 06:57:37;;;;;;;28.58;26.40;;;-2.80;90.50;;;;;;5035992;28;20257;-72
2021/12/21 07:00:06;;;;;;;28.00;25.70;;;-2.80;90.60;;;;;;5035678;28;20202;-72
2021/12/21 07:02:33;;;;;;;29.80;27.70;;;-2.80;90.50;;;;;;5035817;28;20213;-72
2021/12/21 07:05:02;;;;;;;28.40;26.30;;;-2.80;90.40;;;;;;5035723;28;20285;-72
2021/12/21 07:07:30;;;;;;;28.92;26.90;;;-2.90;90.70;;;;;;5035727;28;20688;-71
2021/12/21 07:10:00;;;;;;;30.83;28.35;;;-2.90;91.00;;;;;;5035646;28;20660;-72
2021/12/21 07:18:00;;;;;;;30.17;27.70;;;-2.90;91.00;;;;;;5035722;28;20193;-72
2021/12/21 07:18:23;;;;;;;28.60;26.60;;;-2.70;90.20;;;;;;5035752;28;20197;-72
2021/12/21 07:20:52;;;;;;;28.73;26.63;;;-2.70;90.00;;;;;;5035483;28;20284;-72
2021/12/21 07:23:19;;;;;;;27.98;25.67;;;-2.70;89.90;;;;;;5035496;28;20199;-72
2021/12/21 07:25:47;;;;;;;28.38;26.13;;;-2.70;90.00;;;;;;5035264;28;20223;-72
2021/12/21 07:28:14;;;;;;;28.48;26.48;;;-2.80;90.00;;;;;;5035515;28;20193;-71
2021/12/21 07:30:41;;;;;;;29.65;27.40;;;-2.80;90.10;;;;;;5035308;28;20197;-72
2021/12/21 07:33:07;;;;;;;28.10;25.55;;;-2.80;90.30;;;;;;5035402;28;20194;-72
2021/12/21 07:35:35;;;;;;;30.70;28.20;;;-2.70;90.60;;;;;;5035010;28;20203;-72
2021/12/21 07:38:04;;;;;;;28.90;26.70;;;-2.60;89.90;;;;;;5035261;28;20741;-71
2021/12/21 07:40:31;;;;;;;28.88;26.67;;;-2.70;89.40;;;;;;5034881;28;20198;-72
2021/12/21 07:42:58;;;;;;;28.75;26.67;;;-2.70;89.60;;;;;;5035246;28;20195;-72
2021/12/21 07:45:25;;;;;;;29.92;27.35;;;-2.70;89.70;;;;;;5035046;28;20231;-72
2021/12/21 07:47:52;;;;;;;28.63;26.05;;;-2.70;89.60;;;;;;5034939;28;20253;-72
2021/12/21 07:50:20;;;;;;;306.33;59.42;;;-2.70;90.00;;;;;;5033839;28;20204;-72
2021/12/21 07:52:48;;;;;;;28.90;26.80;;;-2.70;90.30;;;;;;5034963;28;20198;-72
2021/12/21 07:55:16;;;;;;;29.90;27.35;;;-2.70;90.40;;;;;;5035034;28;20223;-72
2021/12/21 07:57:43;;;;;;;28.50;26.05;;;-2.60;90.50;;;;;;5034992;28;20290;-72
2021/12/21 08:00:12;;;;;;;27.80;25.63;;;-2.50;90.20;;;;;;5034714;28;20199;-72
2021/12/21 08:02:39;;;;;;;27.58;25.42;;;-2.40;89.60;;;;;;5035010;28;20197;-72
2021/12/21 08:05:08;;;;;;;29.25;26.70;;;-2.30;89.20;;;;;;5034432;28;20231;-72
2021/12/21 08:07:40;;;;;;;28.98;26.80;;;-2.30;89.10;;;;;;5034690;28;20278;-72
2021/12/21 08:10:19;;;;;;;30.38;28.15;;;-2.30;88.90;;;;;;5034573;28;20656;-72
2021/12/21 08:12:48;;;;;;;30.77;27.80;;;-2.20;88.70;;;;;;5034510;28;20229;-72
2021/12/21 08:15:14;;;;;;;26.92;25.13;;;-2.30;88.20;;;;;;5034557;28;20221;-72
2021/12/21 08:17:41;;;;;;;31.23;28.80;;;-2.50;88.70;;;;;;5034488;28;20204;-72
2021/12/21 08:20:09;;;;;;;27.80;25.67;;;-2.60;89.20;;;;;;5034195;28;20298;-72
2021/12/21 08:22:36;;;;;;;29.92;27.42;;;-2.50;89.60;;;;;;5034389;28;20207;-72
2021/12/21 08:25:04;;;;;;;29.45;27.08;;;-2.40;89.30;;;;;;5034265;28;20237;-71
2021/12/21 08:27:31;;;;;;;29.35;26.95;;;-2.30;89.30;;;;;;5034422;28;20582;-72
2021/12/21 08:29:59;;;;;;;30.73;28.13;;;-2.20;89.40;;;;;;5034106;28;20674;-72
2021/12/21 08:32:26;;;;;;;31.48;28.85;;;-2.20;89.10;;;;;;5034122;28;20204;-72
2021/12/21 08:34:53;;;;;;;31.80;29.40;;;-2.20;89.10;;;;;;5033944;28;20216;-72
2021/12/21 08:37:20;;;;;;;32.58;29.38;;;-2.10;89.20;;;;;;5034129;28;20198;-72
2021/12/21 08:39:46;;;;;;;30.48;27.75;;;-2.00;89.20;;;;;;5033903;28;20259;-72
2021/12/21 08:42:15;;;;;;;29.25;26.80;;;-1.90;89.10;;;;;;5033997;28;20196;-72
2021/12/21 08:44:46;;;;;;;31.23;28.58;;;-1.80;88.80;;;;;;5033732;28;20745;-72
2021/12/21 08:47:15;;;;;;;31.48;29.08;;;-1.80;88.40;;;;;;5033727;28;20207;-72
2021/12/21 08:49:42;;;;;;;31.48;28.98;;;-1.70;88.60;;;;;;5033671;28;20204;-72
2021/12/21 08:52:09;;;;;;;29.48;27.17;;;-1.60;88.70;;;;;;5033942;28;20211;-71
2021/12/21 08:54:36;;;;;;;29.45;27.10;;;-1.50;88.50;;;;;;5033867;28;20219;-72
2021/12/21 08:57:03;;;;;;;30.40;27.70;;;-1.40;88.30;;;;;;5034119;28;20730;-71
2021/12/21 08:59:30;;;;;;;30.27;27.75;;;-1.30;88.20;;;;;;5033743;28;20204;-71
2021/12/21 09:01:57;;;;;;;30.83;28.33;;;-1.30;87.90;;;;;;5033759;28;20264;-72
2021/12/21 09:04:26;;;;;;;29.02;26.83;;;-1.20;87.70;;;;;;5033543;28;20313;-72
2021/12/21 09:06:54;;;;;;;30.58;28.27;;;-1.10;87.80;;;;;;5033539;28;20243;-72
2021/12/21 09:09:21;;;;;;;31.08;28.17;;;-1.00;87.70;;;;;;5033534;28;20211;-72
2021/12/21 09:11:49;;;;;;;30.23;27.75;;;-0.90;87.60;;;;;;5033452;28;20738;-72
2021/12/21 09:14:17;;;;;;;31.13;28.15;;;-0.90;87.50;;;;;;5033331;28;20221;-72
2021/12/21 09:16:44;;;;;;;29.58;27.27;;;-0.80;87.60;;;;;;5033450;28;20201;-72
2021/12/21 09:19:11;;;;;;;30.08;27.70;;;-0.80;87.90;;;;;;5033321;28;20207;-72
2021/12/21 09:21:39;;;;;;;31.83;28.73;;;-0.60;90.80;;;;;;5033364;28;20288;-72
2021/12/21 09:24:07;;;;;;;30.85;28.25;;;-0.30;91.80;;;;;;5033078;28;20304;-71
2021/12/21 09:26:33;;;;;;;48.30;29.42;;;-0.10;93.30;;;;;;5033147;28;20241;-72
2021/12/21 09:29:00;;;;;;;28.25;25.85;;;0.10;93.80;;;;;;5033185;28;20202;-72
2021/12/21 09:31:27;;;;;;;28.70;26.50;;;0.40;92.60;;;;;;5033055;28;20293;-72
2021/12/21 09:33:54;;;;;;;28.75;26.42;;;0.50;90.50;;;;;;5032859;28;20213;-72
2021/12/21 09:36:22;;;;;;;28.45;26.33;;;0.50;89.30;;;;;;5033095;28;20655;-72
2021/12/21 09:38:51;;;;;;;27.98;25.67;;;0.50;88.40;;;;;;5033056;28;20197;-72
2021/12/21 09:41:18;;;;;;;28.52;25.98;;;0.60;88.30;;;;;;5032989;28;20201;-72
2021/12/21 09:43:46;;;;;;;30.33;27.65;;;0.70;87.70;;;;;;5032934;28;20228;-72
2021/12/21 09:46:12;;;;;;;30.88;28.45;;;0.70;87.00;;;;;;5032657;28;20711;-72
2021/12/21 09:48:40;;;;;;;29.42;27.20;;;0.70;87.10;;;;;;5032922;28;20197;-72
2021/12/21 09:51:08;;;;;;;29.42;27.33;;;0.80;87.30;;;;;;5032695;28;20283;-72
2021/12/21 09:53:36;;;;;;;30.92;28.23;;;0.80;86.80;;;;;;5032777;28;20213;-72
2021/12/21 09:56:06;;;;;;;31.13;28.52;;;0.80;86.10;;;;;;5032778;28;20193;-72
2021/12/21 09:58:33;;;;;;;29.90;27.60;;;0.80;87.10;;;;;;5032730;28;20738;-72
2021/12/21 10:01:00;;;;;;;31.25;28.58;;;0.90;91.10;;;;;;5032603;28;20203;-72
2021/12/21 10:03:27;;;;;;;30.13;27.52;;;0.90;89.00;;;;;;5032582;28;20193;-72
2021/12/21 10:06:04;;;;;;;28.67;26.25;;;1.00;87.60;;;;;;5032653;28;20584;-72
2021/12/21 10:08:32;;;;;;;28.90;26.67;;;1.00;87.30;;;;;;5032621;28;20207;-72
2021/12/21 10:10:59;;;;;;;140.32;37.10;;;1.10;86.30;;;;;;5032616;28;20618;-72
2021/12/21 10:13:28;;;;;;;30.42;28.13;;;1.10;86.60;;;;;;5031844;28;20205;-72
2021/12/21 10:15:58;;;;;;;132.00;37.25;;;1.20;86.20;;;;;;5032538;28;20200;-72
2021/12/21 10:18:26;;;;;;;30.88;28.15;;;1.30;86.60;;;;;;5032643;28;20574;-72
2021/12/21 10:20:55;;;;;;;28.40;26.35;;;1.20;91.30;;;;;;5032423;28;20239;-72
2021/12/21 10:23:24;;;;;;;30.80;28.17;;;1.20;89.00;;;;;;5032542;28;20693;-72
2021/12/21 10:25:53;;;;;;;32.15;29.15;;;1.20;87.20;;;;;;5032429;28;20621;-72
2021/12/21 10:28:34;;;;;;;32.10;29.33;;;1.20;85.10;;;;;;5032517;28;20276;-72
2021/12/21 10:31:04;;;;;;;32.33;29.52;;;1.10;84.40;;;;;;5032301;28;20220;-72
2021/12/21 10:33:31;;;;;;;32.30;29.35;;;1.30;84.40;;;;;;5032230;28;20786;-72
2021/12/21 10:36:01;;;;;;;31.63;29.23;;;1.30;83.20;;;;;;5032099;28;20207;-72
2021/12/21 10:38:31;;;;;;;32.92;29.98;;;1.30;83.40;;;;;;5032256;28;20193;-72
2021/12/21 10:41:08;;;;;;;30.95;28.25;;;1.30;83.30;;;;;;5032146;28;20240;-72
2021/12/21 10:43:36;;;;;;;30.58;28.23;;;1.30;83.20;;;;;;5032160;28;20220;-72
2021/12/21 10:46:04;;;;;;;375.60;68.25;;;1.40;82.90;;;;;;5032005;28;20218;-72
2021/12/21 10:48:35;;;;;;;32.80;30.15;;;1.40;83.10;;;;;;5032218;28;20206;-72
2021/12/21 10:51:03;;;;;;;34.10;30.90;;;1.40;84.60;;;;;;5032196;28;20201;-72
2021/12/21 10:53:30;;;;;;;32.33;29.75;;;1.40;83.90;;;;;;5032136;28;20227;-72
2021/12/21 10:56:02;;;;;;;30.50;28.20;;;1.60;83.40;;;;;;5032156;28;20256;-72
2021/12/21 10:58:30;;;;;;;31.05;28.30;;;1.60;82.60;;;;;;5032096;28;20202;-72
2021/12/21 11:01:00;;;;;;;33.28;30.38;;;1.60;81.50;;;;;;5032109;28;20197;-72
2021/12/21 11:03:33;;;;;;;31.77;29.27;;;1.70;81.60;;;;;;5032209;28;20205;-72
2021/12/21 11:06:12;;;;;;;32.53;30.00;;;1.70;80.60;;;;;;5032064;28;20275;-72
2021/12/21 11:08:41;;;;;;;28.90;27.00;;;1.70;81.00;;;;;;5032100;28;20197;-72
2021/12/21 11:11:20;;;;;;;29.58;27.27;;;1.70;80.70;;;;;;5031815;28;20244;-72
2021/12/21 11:13:58;;;;;;;29.13;26.95;;;1.80;81.10;;;;;;5032061;28;20260;-72
2021/12/21 11:16:34;;;;;;;32.20;29.30;;;1.90;81.00;;;;;;5032059;28;20201;-72
2021/12/21 11:19:01;;;;;;;31.90;29.45;;;2.00;81.30;;;;;;5032109;28;20207;-73
2021/12/21 11:21:30;;;;;;;30.77;28.48;;;2.10;80.50;;;;;;5031898;28;20561;-72
2021/12/21 11:24:00;;;;;;;87.63;31.05;;;2.00;80.50;;;;;;5031815;28;20303;-72
2021/12/21 11:26:28;;;;;;;31.00;28.55;;;2.00;80.20;;;;;;5035237;28;20217;-72
2021/12/21 11:28:56;;;;;;;28.02;26.02;;;2.00;81.60;;;;;;5035508;28;20205;-72
2021/12/21 11:31:26;;;;;;;28.67;26.50;;;2.10;80.10;;;;;;5035201;28;20193;-72
2021/12/21 11:33:57;;;;;;;28.25;26.08;;;2.10;79.40;;;;;;5035089;28;20217;-72
2021/12/21 11:39:09;;;;;;;28.63;26.63;;;2.10;79.00;;;;;;5035127;28;20243;-72
2021/12/21 11:41:39;;;;;;;30.20;27.50;;;2.20;79.00;;;;;;5035310;28;20659;-73
2021/12/21 11:44:13;;;;;;;29.58;27.33;;;2.30;80.80;;;;;;5034967;28;20331;-72
2021/12/21 11:46:51;;;;;;;27.60;25.90;;;2.40;78.60;;;;;;5034912;28;20217;-72
2021/12/21 11:49:24;;;;;;;30.42;28.20;;;2.50;79.10;;;;;;5035065;28;20219;-72
2021/12/21 11:51:51;;;;;;;27.65;25.85;;;2.60;79.00;;;;;;5035158;28;20288;-72
2021/12/21 11:54:22;;;;;;;28.58;26.42;;;2.70;79.00;;;;;;5034871;28;20240;-72
2021/12/21 11:56:49;;;;;;;27.63;25.73;;;2.80;76.70;;;;;;5034963;28;20197;-72
2021/12/21 11:59:22;;;;;;;28.10;26.25;;;2.80;77.70;;;;;;5034678;28;20292;-72
2021/12/21 12:01:51;;;;;;;29.10;27.05;;;2.80;76.90;;;;;;5034820;28;20271;-72
2021/12/21 12:04:18;;;;;;;30.65;28.48;;;2.80;76.10;;;;;;5034706;28;20217;-72
2021/12/21 12:06:47;;;;;;;29.52;27.20;;;2.80;76.50;;;;;;5034863;28;20240;-72
2021/12/21 12:09:23;;;;;;;27.92;25.88;;;2.80;76.70;;;;;;5034934;28;20204;-72
2021/12/21 12:11:50;;;;;;;28.80;26.70;;;2.90;76.60;;;;;;5034821;28;20252;-72
2021/12/21 12:14:21;;;;;;;27.50;25.50;;;2.90;77.30;;;;;;5034520;28;20278;-72
2021/12/21 12:16:52;;;;;;;28.50;26.23;;;2.90;79.80;;;;;;5034598;28;20624;-72
2021/12/21 12:19:21;;;;;;;30.38;28.13;;;3.10;76.70;;;;;;5042587;22;20713;-72
2021/12/21 12:21:55;;;;;;;29.35;26.88;;;3.10;76.40;;;;;;5034569;28;20244;-72
2021/12/21 12:24:23;;;;;;;30.05;27.85;;;3.20;75.20;;;;;;5034145;28;20308;-72
2021/12/21 12:26:59;;;;;;;28.83;27.23;;;3.10;74.80;;;;;;5034232;28;20217;-72
2021/12/21 12:29:26;;;;;;;28.40;26.20;;;3.10;74.80;;;;;;5034253;28;20295;-72
2021/12/21 12:32:03;;;;;;;25.73;23.98;;;3.10;76.00;;;;;;5034417;28;20288;-72
2021/12/21 12:34:33;;;;;;;27.90;25.90;;;3.00;74.60;;;;;;5034101;28;20213;-72
2021/12/21 12:37:02;;;;;;;29.23;27.05;;;2.90;74.80;;;;;;5033810;28;20205;-72
2021/12/21 12:39:33;;;;;;;27.55;25.55;;;3.00;76.60;;;;;;5033828;28;20291;-72
2021/12/21 12:42:08;;;;;;;28.85;26.65;;;3.10;77.10;;;;;;5034183;28;20209;-73
2021/12/21 12:44:37;;;;;;;29.02;27.30;;;3.10;77.10;;;;;;5034026;28;20227;-72
2021/12/21 12:47:08;;;;;;;27.92;26.08;;;3.00;75.10;;;;;;5033956;28;20249;-72
2021/12/21 12:49:42;;;;;;;27.98;26.08;;;3.00;76.10;;;;;;5033789;28;20210;-72
2021/12/21 12:52:15;;;;;;;27.55;25.65;;;3.00;77.40;;;;;;5033976;28;20194;-73
2021/12/21 12:54:46;;;;;;;28.65;26.55;;;3.10;77.70;;;;;;5033971;28;20324;-72
2021/12/21 12:57:26;;;;;;;27.00;25.00;;;3.20;77.50;;;;;;5033920;28;20243;-72
2021/12/21 12:59:54;;;;;;;27.75;25.60;;;3.30;77.50;;;;;;5033698;28;20284;-72
2021/12/21 13:02:24;;;;;;;26.88;25.08;;;3.50;76.30;;;;;;5033926;28;20204;-72
2021/12/21 13:04:52;;;;;;;28.05;25.95;;;3.40;76.20;;;;;;5033739;28;20225;-72
2021/12/21 13:07:27;;;;;;;26.38;24.77;;;3.40;76.20;;;;;;5033757;28;20227;-72
2021/12/21 13:10:06;;;;;;;28.33;26.33;;;3.40;74.90;;;;;;5033508;28;20228;-72
2021/12/21 13:12:33;;;;;;;25.92;24.13;;;3.30;74.70;;;;;;5033556;28;20205;-72
2021/12/21 13:15:00;;;;;;;26.45;24.52;;;3.30;75.10;;;;;;5033337;28;20714;-72
2021/12/21 13:17:29;;;;;;;29.50;26.95;;;3.50;72.90;;;;;;5033406;28;20193;-72